createdAt,value
2022-09-10T00:00:12.357Z,7.95
2022-09-10T00:01:15.302Z,7.63
2022-09-10T00:02:17.265Z,8.50
2022-09-10T00:03:18.961Z,7.65
2022-09-10T00:04:20.647Z,7.70
2022-09-10T00:05:22.613Z,8.13
2022-09-10T00:06:28.063Z,7.03
2022-09-10T00:07:32.750Z,7.70
2022-09-10T00:08:34.565Z,7.18
2022-09-10T00:09:36.505Z,7.47
2022-09-10T00:10:43.020Z,7.18
2022-09-10T00:11:45.905Z,7.55
2022-09-10T00:12:51.391Z,7.35
2022-09-10T00:13:53.176Z,7.43
2022-09-10T00:14:56.469Z,7.90
2022-09-10T00:15:59.787Z,7.40
2022-09-10T00:17:01.881Z,7.25
2022-09-10T00:18:03.643Z,7.18
2022-09-10T00:19:06.708Z,7.75
2022-09-10T00:20:09.309Z,6.85
2022-09-10T00:21:14.840Z,7.25
2022-09-10T00:22:17.073Z,7.65
2022-09-10T00:23:22.475Z,8.02
2022-09-10T00:24:24.321Z,7.30
2022-09-10T00:25:30.695Z,7.20
2022-09-10T00:26:38.316Z,7.07
2022-09-10T00:27:40.895Z,7.00
2022-09-10T00:28:43.411Z,7.25
2022-09-10T00:29:45.129Z,7.80
2022-09-10T00:30:49.702Z,7.28
2022-09-10T00:31:51.958Z,7.35
2022-09-10T00:32:55.143Z,7.07
2022-09-10T00:33:58.953Z,6.78
2022-09-10T00:35:01.852Z,7.28
2022-09-10T00:36:06.133Z,6.90
2022-09-10T00:37:07.828Z,7.03
2022-09-10T00:38:11.353Z,7.25
2022-09-10T00:39:15.906Z,7.50
2022-09-10T00:40:17.785Z,6.82
2022-09-10T00:41:21.795Z,7.30
2022-09-10T00:42:23.506Z,7.30
2022-09-10T00:43:25.646Z,7.28
2022-09-10T00:44:41.931Z,7.78
2022-09-10T00:45:46.633Z,8.27
2022-09-10T00:46:51.803Z,7.95
2022-09-10T00:47:57.278Z,7.68
2022-09-10T00:49:02.678Z,7.93
2022-09-10T00:50:22.243Z,7.93
2022-09-10T00:51:26.671Z,7.70
2022-09-10T00:52:29.524Z,7.95
2022-09-10T00:53:32.062Z,7.82
2022-09-10T00:54:36.236Z,8.32
2022-09-10T00:55:42.938Z,8.38
2022-09-10T00:56:45.526Z,8.70
2022-09-10T00:57:50.764Z,8.40
2022-09-10T00:58:52.978Z,8.10
2022-09-10T01:00:02.052Z,8.35
2022-09-10T01:01:04.321Z,8.35
2022-09-10T01:02:06.252Z,8.48
2022-09-10T01:03:14.141Z,9.00
2022-09-10T01:04:16.466Z,9.10
2022-09-10T01:05:19.708Z,8.65
2022-09-10T01:06:21.469Z,8.45
2022-09-10T01:07:25.538Z,8.57
2022-09-10T01:08:30.076Z,8.95
2022-09-10T01:09:32.022Z,8.63
2022-09-10T01:10:43.571Z,8.95
2022-09-10T01:12:09.051Z,8.93
2022-09-10T01:13:32.421Z,9.23
2022-09-10T01:14:55.516Z,9.43
2022-09-10T01:16:03.263Z,9.10
2022-09-10T01:17:34.532Z,9.13
2022-09-10T01:19:19.540Z,9.18
2022-09-10T01:20:48.559Z,9.45
2022-09-10T01:22:22.994Z,10.07
2022-09-10T01:24:15.024Z,9.73
2022-09-10T01:26:51.939Z,10.02
2022-09-10T01:27:58.297Z,9.48
2022-09-10T01:29:28.506Z,9.35
2022-09-10T01:30:43.080Z,9.55
2022-09-10T01:32:15.750Z,9.60
2022-09-10T01:33:37.530Z,8.93
2022-09-10T01:34:51.340Z,9.38
2022-09-10T01:35:57.749Z,9.68
2022-09-10T01:37:08.060Z,9.25
2022-09-10T01:38:23.842Z,8.55
2022-09-10T01:39:27.529Z,9.23
2022-09-10T01:40:30.166Z,9.50
2022-09-10T01:41:32.286Z,9.10
2022-09-10T01:42:38.207Z,8.93
2022-09-10T01:43:41.309Z,9.52
2022-09-10T01:44:43.950Z,9.13
2022-09-10T01:46:19.297Z,9.02
2022-09-10T01:47:39.114Z,8.73
2022-09-10T01:48:56.282Z,9.27
2022-09-10T01:50:27.182Z,8.30
2022-09-10T01:51:45.056Z,9.10
2022-09-10T01:53:01.982Z,9.73
2022-09-10T01:54:14.497Z,8.82
2022-09-10T01:55:30.154Z,8.88
2022-09-10T01:57:01.654Z,8.80
2022-09-10T01:59:22.839Z,8.25
2022-09-10T02:00:25.809Z,8.80
2022-09-10T02:01:51.195Z,9.13
2022-09-10T02:03:06.002Z,8.80
2022-09-10T02:04:10.625Z,8.43
2022-09-10T02:05:14.312Z,8.70
2022-09-10T02:06:21.348Z,7.28
2022-09-10T02:07:27.028Z,8.50
2022-09-10T02:08:33.893Z,8.55
2022-09-10T02:09:36.488Z,9.07
2022-09-10T02:10:56.207Z,8.43
2022-09-10T02:11:57.938Z,9.18
2022-09-10T02:12:59.683Z,9.27
2022-09-10T02:14:01.459Z,10.27
2022-09-10T02:15:04.635Z,11.02
2022-09-10T02:16:11.386Z,10.38
2022-09-10T02:17:13.415Z,10.70
2022-09-10T02:18:15.915Z,10.30
2022-09-10T02:19:18.054Z,9.88
2022-09-10T02:20:22.242Z,10.15
2022-09-10T02:21:24.130Z,9.80
2022-09-10T02:22:25.949Z,10.13
2022-09-10T02:23:37.411Z,9.32
2022-09-10T02:24:39.257Z,9.93
2022-09-10T02:25:40.998Z,9.88
2022-09-10T02:26:44.407Z,9.32
2022-09-10T02:27:47.822Z,9.50
2022-09-10T02:28:52.272Z,9.93
2022-09-10T02:29:55.572Z,9.13
2022-09-10T02:30:57.371Z,9.38
2022-09-10T02:31:59.942Z,9.07
2022-09-10T02:33:01.622Z,9.90
2022-09-10T02:34:03.700Z,10.43
2022-09-10T02:35:05.910Z,9.50
2022-09-10T02:36:07.672Z,10.40
2022-09-10T02:37:09.513Z,10.40
2022-09-10T02:38:11.377Z,10.35
2022-09-10T02:39:13.255Z,9.98
2022-09-10T02:40:15.109Z,10.15
2022-09-10T02:41:18.100Z,9.25
2022-09-10T02:42:20.055Z,9.77
2022-09-10T02:43:21.787Z,10.25
2022-09-10T02:44:23.551Z,9.70
2022-09-10T02:45:25.642Z,9.60
2022-09-10T02:46:27.599Z,9.77
2022-09-10T02:47:30.229Z,9.13
2022-09-10T02:48:32.142Z,9.38
2022-09-10T02:49:34.854Z,9.50
2022-09-10T02:50:36.833Z,10.27
2022-09-10T02:51:39.011Z,10.68
2022-09-10T02:52:40.729Z,10.50
2022-09-10T02:53:42.938Z,10.70
2022-09-10T02:54:44.659Z,11.10
2022-09-10T02:55:46.836Z,10.85
2022-09-10T02:56:51.207Z,9.70
2022-09-10T02:57:52.904Z,9.88
2022-09-10T02:58:54.668Z,10.45
2022-09-10T02:59:57.245Z,10.43
2022-09-10T03:01:10.021Z,9.73
2022-09-10T03:02:12.002Z,10.48
2022-09-10T03:03:14.976Z,9.75
2022-09-10T03:04:17.407Z,9.80
2022-09-10T03:05:19.247Z,10.00
2022-09-10T03:06:22.175Z,10.35
2022-09-10T03:07:23.942Z,9.60
2022-09-10T03:08:26.604Z,9.77
2022-09-10T03:09:29.036Z,8.77
2022-09-10T03:10:31.969Z,9.70
2022-09-10T03:11:34.958Z,10.18
2022-09-10T03:12:36.823Z,10.10
2022-09-10T03:13:38.545Z,9.65
2022-09-10T03:14:40.288Z,9.98
2022-09-10T03:15:44.809Z,10.48
2022-09-10T03:16:48.083Z,11.10
2022-09-10T03:17:49.881Z,10.18
2022-09-10T03:18:52.483Z,9.98
2022-09-10T03:19:54.397Z,9.88
2022-09-10T03:20:56.173Z,10.75
2022-09-10T03:21:58.027Z,10.23
2022-09-10T03:22:59.808Z,10.55
2022-09-10T03:24:04.684Z,10.85
2022-09-10T03:25:08.159Z,11.02
2022-09-10T03:26:10.351Z,11.25
2022-09-10T03:27:14.264Z,11.15
2022-09-10T03:28:16.414Z,10.43
2022-09-10T03:29:18.173Z,10.40
2022-09-10T03:30:21.338Z,10.30
2022-09-10T03:31:23.159Z,10.85
2022-09-10T03:32:25.049Z,10.23
2022-09-10T03:33:27.784Z,11.00
2022-09-10T03:34:29.495Z,11.05
2022-09-10T03:35:31.220Z,11.50
2022-09-10T03:36:32.904Z,11.15
2022-09-10T03:37:34.659Z,11.43
2022-09-10T03:38:36.483Z,11.07
2022-09-10T03:39:38.252Z,11.68
2022-09-10T03:40:40.727Z,11.30
2022-09-10T03:41:42.550Z,10.55
2022-09-10T03:42:44.275Z,11.50
2022-09-10T03:43:46.262Z,11.57
2022-09-10T03:44:48.015Z,12.75
2022-09-10T03:45:51.647Z,11.65
2022-09-10T03:46:53.394Z,12.77
2022-09-10T03:47:55.134Z,12.60
2022-09-10T03:48:57.289Z,12.48
2022-09-10T03:50:00.144Z,12.68
2022-09-10T03:51:02.040Z,12.30
2022-09-10T03:52:03.949Z,12.68
2022-09-10T03:53:05.664Z,13.15
2022-09-10T03:54:07.378Z,12.30
2022-09-10T03:55:10.629Z,11.35
2022-09-10T03:56:12.370Z,12.25
2022-09-10T03:57:14.175Z,12.38
2022-09-10T03:58:16.968Z,13.02
2022-09-10T03:59:18.810Z,12.80
2022-09-10T04:00:20.632Z,12.77
2022-09-10T04:01:22.357Z,12.75
2022-09-10T04:02:24.182Z,12.55
2022-09-10T04:03:27.160Z,11.85
2022-09-10T04:04:29.656Z,11.55
2022-09-10T04:05:33.080Z,11.25
2022-09-10T04:06:35.707Z,12.10
2022-09-10T04:07:38.008Z,11.93
2022-09-10T04:08:40.734Z,12.98
2022-09-10T04:09:42.596Z,12.38
2022-09-10T04:10:44.534Z,12.50
2022-09-10T04:11:46.956Z,12.02
2022-09-10T04:12:49.077Z,12.00
2022-09-10T04:13:51.525Z,11.52
2022-09-10T04:14:53.640Z,11.32
2022-09-10T04:15:56.233Z,11.52
2022-09-10T04:16:59.147Z,11.45
2022-09-10T04:18:01.022Z,11.43
2022-09-10T04:19:02.840Z,12.13
2022-09-10T04:20:04.972Z,12.38
2022-09-10T04:21:06.858Z,12.18
2022-09-10T04:22:08.562Z,12.18
2022-09-10T04:23:10.354Z,11.70
2022-09-10T04:24:12.866Z,11.38
2022-09-10T04:25:16.055Z,11.05
2022-09-10T04:26:19.562Z,11.15
2022-09-10T04:27:22.435Z,11.20
2022-09-10T04:28:24.299Z,10.88
2022-09-10T04:29:26.073Z,11.45
2022-09-10T04:30:28.960Z,11.13
2022-09-10T04:31:30.728Z,11.65
2022-09-10T04:32:32.523Z,11.20
2022-09-10T04:33:34.332Z,11.07
2022-09-10T04:34:36.137Z,11.00
2022-09-10T04:35:39.644Z,10.55
2022-09-10T04:36:41.411Z,11.10
2022-09-10T04:37:43.351Z,11.05
2022-09-10T04:38:45.082Z,11.23
2022-09-10T04:39:47.017Z,10.45
2022-09-10T04:40:48.760Z,11.23
2022-09-10T04:41:50.461Z,11.32
2022-09-10T04:42:52.247Z,10.48
2022-09-10T04:43:53.939Z,11.25
2022-09-10T04:44:55.629Z,10.70
2022-09-10T04:45:57.441Z,11.02
2022-09-10T04:46:59.224Z,11.43
2022-09-10T04:48:06.197Z,11.02
2022-09-10T04:49:08.757Z,11.10
2022-09-10T04:50:10.758Z,11.07
2022-09-10T04:51:16.503Z,11.45
2022-09-10T04:52:20.365Z,10.27
2022-09-10T04:53:22.127Z,10.85
2022-09-10T04:54:23.835Z,10.43
2022-09-10T04:55:26.299Z,10.38
2022-09-10T04:56:28.190Z,10.35
2022-09-10T04:57:30.071Z,9.82
2022-09-10T04:58:36.560Z,9.52
2022-09-10T04:59:40.487Z,9.55
2022-09-10T05:00:42.263Z,9.55
2022-09-10T05:01:44.104Z,9.60
2022-09-10T05:02:46.798Z,8.95
2022-09-10T05:03:48.490Z,9.45
2022-09-10T05:04:50.919Z,9.32
2022-09-10T05:05:52.723Z,8.88
2022-09-10T05:06:54.468Z,9.15
2022-09-10T05:07:56.298Z,9.18
2022-09-10T05:08:58.639Z,9.57
2022-09-10T05:10:00.325Z,8.77
2022-09-10T05:11:02.968Z,8.95
2022-09-10T05:12:05.026Z,9.77
2022-09-10T05:13:07.183Z,8.77
2022-09-10T05:14:09.053Z,8.45
2022-09-10T05:15:10.929Z,8.57
2022-09-10T05:16:12.711Z,9.73
2022-09-10T05:17:15.571Z,9.00
2022-09-10T05:18:17.280Z,8.85
2022-09-10T05:19:19.044Z,9.23
2022-09-10T05:20:20.759Z,8.60
2022-09-10T05:21:22.820Z,8.55
2022-09-10T05:22:27.359Z,9.57
2022-09-10T05:23:33.439Z,9.13
2022-09-10T05:24:35.125Z,9.13
2022-09-10T05:25:37.858Z,8.95
2022-09-10T05:26:40.169Z,9.02
2022-09-10T05:27:42.085Z,9.18
2022-09-10T05:28:43.934Z,8.43
2022-09-10T05:29:45.634Z,9.10
2022-09-10T05:30:51.560Z,8.75
2022-09-10T05:31:53.742Z,7.60
2022-09-10T05:32:55.812Z,8.15
2022-09-10T05:33:59.491Z,7.80
2022-09-10T05:35:02.314Z,8.18
2022-09-10T05:36:05.340Z,7.07
2022-09-10T05:37:08.943Z,7.50
2022-09-10T05:38:14.762Z,8.80
2022-09-10T05:39:16.881Z,7.68
2022-09-10T05:40:21.761Z,7.25
2022-09-10T05:41:24.750Z,6.75
2022-09-10T05:42:27.083Z,7.45
2022-09-10T05:43:29.057Z,7.35
2022-09-10T05:44:30.819Z,7.18
2022-09-10T05:45:32.728Z,6.93
2022-09-10T05:46:34.847Z,6.88
2022-09-10T05:47:37.684Z,6.95
2022-09-10T05:48:41.934Z,7.13
2022-09-10T05:49:44.920Z,6.55
2022-09-10T05:50:46.661Z,6.90
2022-09-10T05:51:48.410Z,7.22
2022-09-10T05:52:50.047Z,7.32
2022-09-10T05:53:51.690Z,6.68
2022-09-10T05:54:56.553Z,7.28
2022-09-10T05:55:58.219Z,6.97
2022-09-10T05:57:00.334Z,7.20
2022-09-10T05:58:03.043Z,6.90
2022-09-10T05:59:05.695Z,7.32
2022-09-10T06:00:09.433Z,6.47
2022-09-10T06:01:11.349Z,6.78
2022-09-10T06:02:23.946Z,7.40
2022-09-10T06:03:26.183Z,7.10
2022-09-10T06:04:27.857Z,6.38
2022-09-10T06:05:29.529Z,7.78
2022-09-10T06:06:31.366Z,7.15
2022-09-10T06:07:33.185Z,7.03
2022-09-10T06:08:35.807Z,7.05
2022-09-10T06:09:37.575Z,7.28
2022-09-10T06:10:39.430Z,6.93
2022-09-10T06:11:41.993Z,6.80
2022-09-10T06:12:47.202Z,8.10
2022-09-10T06:13:49.260Z,7.30
2022-09-10T06:14:50.911Z,6.85
2022-09-10T06:15:53.143Z,6.38
2022-09-10T06:16:55.319Z,7.15
2022-09-10T06:17:57.640Z,6.60
2022-09-10T06:18:59.770Z,6.82
2022-09-10T06:20:01.492Z,6.47
2022-09-10T06:21:15.420Z,6.28
2022-09-10T06:22:17.093Z,6.50
2022-09-10T06:23:18.829Z,6.40
2022-09-10T06:24:21.192Z,6.68
2022-09-10T06:25:23.070Z,6.57
2022-09-10T06:26:24.726Z,6.47
2022-09-10T06:27:26.644Z,6.80
2022-09-10T06:28:28.649Z,6.10
2022-09-10T06:29:30.357Z,6.10
2022-09-10T06:30:32.525Z,5.90
2022-09-10T06:31:34.996Z,6.00
2022-09-10T06:32:36.725Z,6.57
2022-09-10T06:33:38.383Z,6.10
2022-09-10T06:34:40.056Z,5.75
2022-09-10T06:35:41.758Z,5.70
2022-09-10T06:36:43.806Z,5.90
2022-09-10T06:37:45.506Z,5.75
2022-09-10T06:38:48.212Z,7.15
2022-09-10T06:39:49.916Z,6.10
2022-09-10T06:40:56.246Z,6.40
2022-09-10T06:41:57.915Z,6.50
2022-09-10T06:43:02.263Z,6.55
2022-09-10T06:44:03.954Z,6.43
2022-09-10T06:45:06.269Z,6.70
2022-09-10T06:46:56.939Z,6.60
2022-09-10T06:48:51.546Z,6.82
2022-09-10T06:49:04.326Z,6.50
2022-09-10T06:50:06.470Z,6.82
2022-09-10T06:51:10.236Z,6.97
2022-09-10T06:52:11.893Z,6.47
2022-09-10T06:53:13.728Z,6.53
2022-09-10T06:54:15.422Z,6.57
2022-09-10T06:55:17.259Z,6.57
2022-09-10T06:56:18.926Z,5.80
2022-09-10T06:57:20.837Z,6.40
2022-09-10T06:58:24.664Z,6.40
2022-09-10T06:59:26.306Z,5.97
2022-09-10T07:00:28.105Z,6.40
2022-09-10T07:01:29.986Z,6.68
2022-09-10T07:02:31.705Z,6.10
2022-09-10T07:03:33.638Z,6.82
2022-09-10T07:04:35.456Z,6.20
2022-09-10T07:05:37.128Z,6.25
2022-09-10T07:06:39.036Z,6.22
2022-09-10T07:07:41.013Z,5.93
2022-09-10T07:08:43.229Z,6.70
2022-09-10T07:09:45.501Z,6.40
2022-09-10T07:10:47.219Z,5.82
2022-09-10T07:11:48.868Z,5.63
2022-09-10T07:12:50.646Z,6.15
2022-09-10T07:13:53.962Z,6.70
2022-09-10T07:14:55.630Z,6.60
2022-09-10T07:15:57.749Z,6.78
2022-09-10T07:16:59.465Z,6.28
2022-09-10T07:18:01.292Z,6.85
2022-09-10T07:19:02.961Z,6.70
2022-09-10T07:20:05.157Z,6.30
2022-09-10T07:21:08.261Z,5.93
2022-09-10T07:22:09.965Z,5.95
2022-09-10T07:23:16.343Z,6.85
2022-09-10T07:24:20.139Z,6.00
2022-09-10T07:25:23.537Z,5.65
2022-09-10T07:26:26.058Z,5.40
2022-09-10T07:27:27.701Z,6.15
2022-09-10T07:28:29.449Z,5.38
2022-09-10T07:29:31.444Z,5.32
2022-09-10T07:30:34.029Z,6.00
2022-09-10T07:31:38.355Z,5.22
2022-09-10T07:32:40.621Z,5.70
2022-09-10T07:33:43.307Z,5.60
2022-09-10T07:34:46.751Z,5.28
2022-09-10T07:35:48.398Z,5.32
2022-09-10T07:36:50.805Z,5.13
2022-09-10T07:37:52.475Z,5.78
2022-09-10T07:38:57.712Z,5.25
2022-09-10T07:39:59.963Z,5.43
2022-09-10T07:41:02.949Z,5.63
2022-09-10T07:42:04.862Z,5.38
2022-09-10T07:43:07.339Z,6.00
2022-09-10T07:44:09.077Z,5.75
2022-09-10T07:45:16.307Z,6.00
2022-09-10T07:46:22.030Z,5.90
2022-09-10T07:47:25.402Z,6.15
2022-09-10T07:48:28.553Z,6.13
2022-09-10T07:49:30.358Z,5.97
2022-09-10T07:50:32.176Z,5.80
2022-09-10T07:51:34.418Z,5.78
2022-09-10T07:52:36.945Z,5.93
2022-09-10T07:53:42.171Z,5.82
2022-09-10T07:54:51.852Z,5.80
2022-09-10T07:56:09.489Z,6.10
2022-09-10T07:57:11.164Z,7.55
2022-09-10T07:58:12.871Z,6.10
2022-09-10T07:59:15.478Z,6.20
2022-09-10T08:00:18.642Z,6.20
2022-09-10T08:01:20.423Z,5.93
2022-09-10T08:02:22.511Z,6.43
2022-09-10T08:03:24.221Z,6.13
2022-09-10T08:04:26.283Z,6.18
2022-09-10T08:05:28.932Z,6.20
2022-09-10T08:06:32.332Z,5.97
2022-09-10T08:07:34.246Z,5.88
2022-09-10T08:08:38.541Z,6.07
2022-09-10T08:09:40.412Z,5.93
2022-09-10T08:10:42.349Z,5.93
2022-09-10T08:11:43.986Z,5.88
2022-09-10T08:12:45.880Z,6.40
2022-09-10T08:13:50.121Z,6.00
2022-09-10T08:14:52.448Z,6.25
2022-09-10T08:15:54.166Z,5.70
2022-09-10T08:16:55.976Z,5.85
2022-09-10T08:17:59.931Z,5.93
2022-09-10T08:19:02.025Z,6.03
2022-09-10T08:20:08.893Z,6.35
2022-09-10T08:21:11.346Z,6.28
2022-09-10T08:22:14.316Z,6.68
2022-09-10T08:23:15.966Z,5.60
2022-09-10T08:24:17.851Z,5.97
2022-09-10T08:25:22.488Z,5.75
2022-09-10T08:26:25.944Z,5.97
2022-09-10T08:27:27.662Z,5.47
2022-09-10T08:28:29.511Z,6.78
2022-09-10T08:29:31.195Z,5.90
2022-09-10T08:30:32.931Z,6.30
2022-09-10T08:31:34.856Z,5.45
2022-09-10T08:32:36.563Z,5.78
2022-09-10T08:33:39.835Z,5.57
2022-09-10T08:34:41.811Z,5.85
2022-09-10T08:35:43.447Z,5.90
2022-09-10T08:36:45.167Z,6.82
2022-09-10T08:37:47.740Z,5.32
2022-09-10T08:38:50.513Z,6.07
2022-09-10T08:39:52.246Z,6.32
2022-09-10T08:40:54.756Z,6.25
2022-09-10T08:41:59.540Z,6.65
2022-09-10T08:43:01.791Z,6.40
2022-09-10T08:44:12.671Z,5.70
2022-09-10T08:45:19.348Z,5.97
2022-09-10T08:46:26.988Z,5.78
2022-09-10T08:47:40.710Z,5.75
2022-09-10T08:48:44.846Z,6.22
2022-09-10T08:49:51.730Z,5.75
2022-09-10T08:51:26.403Z,5.85
2022-09-10T08:52:38.430Z,5.43
2022-09-10T08:53:59.937Z,5.68
2022-09-10T08:55:22.953Z,5.93
2022-09-10T08:56:25.160Z,6.20
2022-09-10T08:57:34.402Z,5.80
2022-09-10T08:58:43.870Z,6.28
2022-09-10T08:59:47.680Z,5.32
2022-09-10T09:00:56.057Z,6.10
2022-09-10T09:02:02.404Z,5.85
2022-09-10T09:03:28.701Z,5.32
2022-09-10T09:04:54.472Z,7.05
2022-09-10T09:06:00.625Z,6.60
2022-09-10T09:07:10.682Z,7.40
2022-09-10T09:08:15.967Z,7.18
2022-09-10T09:09:17.970Z,5.78
2022-09-10T09:10:25.853Z,6.10
2022-09-10T09:11:37.100Z,6.53
2022-09-10T09:13:03.309Z,6.25
2022-09-10T09:14:33.778Z,6.93
2022-09-10T09:15:56.074Z,6.13
2022-09-10T09:17:35.448Z,6.10
2022-09-10T09:18:47.004Z,6.00
2022-09-10T09:20:14.443Z,5.80
2022-09-10T09:21:18.304Z,6.30
2022-09-10T09:22:38.079Z,6.50
2022-09-10T09:24:12.626Z,5.70
2022-09-10T09:25:21.030Z,6.20
2022-09-10T09:26:35.034Z,6.55
2022-09-10T09:27:41.639Z,6.72
2022-09-10T09:29:01.757Z,6.43
2022-09-10T09:30:06.751Z,6.30
2022-09-10T09:31:14.668Z,6.35
2022-09-10T09:32:19.285Z,6.18
2022-09-10T09:33:23.831Z,6.47
2022-09-10T09:34:34.659Z,6.68
2022-09-10T09:35:54.081Z,6.53
2022-09-10T09:37:01.573Z,6.00
2022-09-10T09:38:25.158Z,6.72
2022-09-10T09:39:36.384Z,5.90
2022-09-10T09:40:46.811Z,6.53
2022-09-10T09:41:59.267Z,6.55
2022-09-10T09:43:13.916Z,5.97
2022-09-10T09:44:19.196Z,6.00
2022-09-10T09:45:44.147Z,6.25
2022-09-10T09:46:45.849Z,6.53
2022-09-10T09:47:50.316Z,6.55
2022-09-10T09:48:57.691Z,6.68
2022-09-10T09:50:00.538Z,6.28
2022-09-10T09:51:04.532Z,6.75
2022-09-10T09:52:23.273Z,7.10
2022-09-10T09:53:28.011Z,6.30
2022-09-10T09:55:03.234Z,6.47
2022-09-10T09:55:56.890Z,6.78
2022-09-10T09:56:59.969Z,6.63
2022-09-10T09:58:32.504Z,6.72
2022-09-10T09:59:37.632Z,6.35
2022-09-10T10:00:39.369Z,6.88
2022-09-10T10:01:42.954Z,6.82
2022-09-10T10:02:45.372Z,6.53
2022-09-10T10:04:05.525Z,6.65
2022-09-10T10:05:20.781Z,6.95
2022-09-10T10:06:50.976Z,7.30
2022-09-10T10:07:52.961Z,6.53
2022-09-10T10:09:01.662Z,6.10
2022-09-10T10:10:07.540Z,6.68
2022-09-10T10:11:12.404Z,6.15
2022-09-10T10:12:21.715Z,6.70
2022-09-10T10:13:24.337Z,6.78
2022-09-10T10:14:35.326Z,6.75
2022-09-10T10:15:41.182Z,6.05
2022-09-10T10:16:43.094Z,7.90
2022-09-10T10:17:44.986Z,6.07
2022-09-10T10:18:46.715Z,6.10
2022-09-10T10:20:19.605Z,6.35
2022-09-10T10:21:34.964Z,6.28
2022-09-10T10:22:39.028Z,6.38
2022-09-10T10:23:41.089Z,6.20
2022-09-10T10:24:43.201Z,6.10
2022-09-10T10:25:48.826Z,6.65
2022-09-10T10:26:50.687Z,6.50
2022-09-10T10:27:54.527Z,6.28
2022-09-10T10:29:01.365Z,6.30
2022-09-10T10:30:06.195Z,6.40
2022-09-10T10:31:07.937Z,5.78
2022-09-10T10:32:16.553Z,6.07
2022-09-10T10:33:31.729Z,6.05
2022-09-10T10:34:47.473Z,6.10
2022-09-10T10:35:49.130Z,5.55
2022-09-10T10:37:06.371Z,5.97
2022-09-10T10:38:44.637Z,5.85
2022-09-10T10:40:04.717Z,6.10
2022-09-10T10:41:40.066Z,5.85
2022-09-10T10:42:49.217Z,6.07
2022-09-10T10:44:03.229Z,6.57
2022-09-10T10:45:32.870Z,5.75
2022-09-10T10:47:09.814Z,5.75
2022-09-10T10:48:32.866Z,4.95
2022-09-10T10:50:08.260Z,5.70
2022-09-10T10:51:18.254Z,5.90
2022-09-10T10:52:47.770Z,5.68
2022-09-10T10:54:28.813Z,5.88
2022-09-10T10:55:41.772Z,5.55
2022-09-10T10:57:27.686Z,5.85
2022-09-10T10:59:04.744Z,5.63
2022-09-10T11:00:13.010Z,5.60
2022-09-10T11:01:21.680Z,5.40
2022-09-10T11:02:36.324Z,5.68
2022-09-10T11:03:46.412Z,5.90
2022-09-10T11:04:53.496Z,5.35
2022-09-10T11:06:05.395Z,5.32
2022-09-10T11:07:23.233Z,6.15
2022-09-10T11:08:37.617Z,5.60
2022-09-10T11:09:43.179Z,5.55
2022-09-10T11:10:56.320Z,5.82
2022-09-10T11:12:05.861Z,6.10
2022-09-10T11:13:27.864Z,6.32
2022-09-10T11:14:38.392Z,5.78
2022-09-10T11:15:55.447Z,5.50
2022-09-10T11:17:03.778Z,5.43
2022-09-10T11:18:28.496Z,5.40
2022-09-10T11:19:38.438Z,5.88
2022-09-10T11:20:45.932Z,5.82
2022-09-10T11:21:56.421Z,6.05
2022-09-10T11:23:10.904Z,5.90
2022-09-10T11:24:23.641Z,6.13
2022-09-10T11:25:34.386Z,5.65
2022-09-10T11:27:52.127Z,5.68
2022-09-10T11:29:18.668Z,5.70
2022-09-10T11:30:20.541Z,5.78
2022-09-10T11:31:30.474Z,5.70
2022-09-10T11:32:44.839Z,5.97
2022-09-10T11:34:02.306Z,5.88
2022-09-10T11:35:07.744Z,5.30
2022-09-10T11:36:23.511Z,5.70
2022-09-10T11:37:43.889Z,5.75
2022-09-10T11:38:59.074Z,6.10
2022-09-10T11:40:07.481Z,5.70
2022-09-10T11:41:25.092Z,5.60
2022-09-10T11:42:39.873Z,5.88
2022-09-10T11:43:42.409Z,6.05
2022-09-10T11:44:53.376Z,5.72
2022-09-10T11:45:59.142Z,6.13
2022-09-10T11:47:04.095Z,5.80
2022-09-10T11:48:10.591Z,5.28
2022-09-10T11:49:18.386Z,5.40
2022-09-10T11:50:52.128Z,5.57
2022-09-10T11:51:54.004Z,5.72
2022-09-10T11:52:59.398Z,5.15
2022-09-10T11:54:03.933Z,5.80
2022-09-10T11:55:08.631Z,5.35
2022-09-10T11:56:49.664Z,5.82
2022-09-10T11:58:00.221Z,6.70
2022-09-10T11:59:40.980Z,6.50
2022-09-10T12:00:56.641Z,7.57
2022-09-10T12:02:15.276Z,7.10
2022-09-10T12:04:01.767Z,6.78
2022-09-10T12:05:30.312Z,6.70
2022-09-10T12:07:01.344Z,7.15
2022-09-10T12:08:28.665Z,7.35
2022-09-10T12:10:00.002Z,6.97
2022-09-10T12:11:20.261Z,7.35
2022-09-10T12:12:32.005Z,7.25
2022-09-10T12:13:39.535Z,7.00
2022-09-10T12:14:41.748Z,6.95
2022-09-10T12:15:56.270Z,7.00
2022-09-10T12:17:04.069Z,7.28
2022-09-10T12:18:22.044Z,7.57
2022-09-10T12:19:31.661Z,7.47
2022-09-10T12:20:54.899Z,7.18
2022-09-10T12:22:16.976Z,7.38
2022-09-10T12:23:31.941Z,7.88
2022-09-10T12:24:36.966Z,7.43
2022-09-10T12:25:38.893Z,7.20
2022-09-10T12:26:45.115Z,7.20
2022-09-10T12:27:49.164Z,7.30
2022-09-10T12:28:53.621Z,7.70
2022-09-10T12:29:55.364Z,7.20
2022-09-10T12:31:03.901Z,7.63
2022-09-10T12:32:14.826Z,7.47
2022-09-10T12:34:19.760Z,7.75
2022-09-10T12:35:34.376Z,7.57
2022-09-10T12:36:36.114Z,7.72
2022-09-10T12:37:37.881Z,6.95
2022-09-10T12:39:01.476Z,8.20
2022-09-10T12:40:44.418Z,8.15
2022-09-10T12:41:46.008Z,8.00
2022-09-10T12:42:47.680Z,7.88
2022-09-10T12:43:49.332Z,7.47
2022-09-10T12:44:51.134Z,8.02
2022-09-10T12:46:17.531Z,7.90
2022-09-10T12:47:45.261Z,7.97
2022-09-10T12:48:50.922Z,8.18
2022-09-10T12:50:06.365Z,7.47
2022-09-10T12:51:28.259Z,7.47
2022-09-10T12:53:02.917Z,7.80
2022-09-10T12:54:04.570Z,8.05
2022-09-10T12:55:15.160Z,7.97
2022-09-10T12:56:45.914Z,7.45
2022-09-10T12:58:16.445Z,8.82
2022-09-10T12:59:36.565Z,7.95
2022-09-10T13:01:03.796Z,8.77
2022-09-10T13:02:28.193Z,8.30
2022-09-10T13:03:31.329Z,7.90
2022-09-10T13:04:37.837Z,8.48
2022-09-10T13:05:54.247Z,8.40
2022-09-10T13:07:04.377Z,8.20
2022-09-10T13:08:26.438Z,9.10
2022-09-10T13:09:31.589Z,7.95
2022-09-10T13:10:34.101Z,7.70
2022-09-10T13:11:36.762Z,7.93
2022-09-10T13:12:42.666Z,8.52
2022-09-10T13:14:01.259Z,7.60
2022-09-10T13:15:04.983Z,7.85
2022-09-10T13:16:14.621Z,7.50
2022-09-10T13:17:39.890Z,7.57
2022-09-10T13:18:42.175Z,7.10
2022-09-10T13:19:43.763Z,7.07
2022-09-10T13:20:45.436Z,7.75
2022-09-10T13:21:48.209Z,7.45
2022-09-10T13:22:56.069Z,7.30
2022-09-10T13:23:58.222Z,7.28
2022-09-10T13:25:02.825Z,6.95
2022-09-10T13:26:26.065Z,6.90
2022-09-10T13:27:39.971Z,7.05
2022-09-10T13:28:42.978Z,6.85
2022-09-10T13:29:53.608Z,6.85
2022-09-10T13:31:12.113Z,7.00
2022-09-10T13:32:16.782Z,7.30
2022-09-10T13:33:23.208Z,7.28
2022-09-10T13:34:56.861Z,7.32
2022-09-10T13:36:05.750Z,7.43
2022-09-10T13:37:22.635Z,7.30
2022-09-10T13:39:02.248Z,7.03
2022-09-10T13:40:46.460Z,7.30
2022-09-10T13:41:54.443Z,7.38
2022-09-10T13:43:33.804Z,7.97
2022-09-10T13:44:56.944Z,7.70
2022-09-10T13:46:02.886Z,7.72
2022-09-10T13:47:11.835Z,7.53
2022-09-10T13:48:22.217Z,7.22
2022-09-10T13:49:53.554Z,7.25
2022-09-10T13:51:01.105Z,7.32
2022-09-10T13:52:05.848Z,7.85
2022-09-10T13:53:11.874Z,7.40
2022-09-10T13:54:33.372Z,7.07
2022-09-10T13:55:35.665Z,7.13
2022-09-10T13:56:41.826Z,7.65
2022-09-10T13:57:47.743Z,6.95
2022-09-10T13:58:52.297Z,7.38
2022-09-10T14:00:05.396Z,7.13
2022-09-10T14:01:07.546Z,7.07
2022-09-10T14:02:09.491Z,7.20
2022-09-10T14:03:23.257Z,7.03
2022-09-10T14:04:45.274Z,6.68
2022-09-10T14:05:57.599Z,7.28
2022-09-10T14:07:13.317Z,7.25
2022-09-10T14:08:27.059Z,7.43
2022-09-10T14:09:29.886Z,6.93
2022-09-10T14:10:32.396Z,7.43
2022-09-10T14:11:38.937Z,7.80
2022-09-10T14:12:41.191Z,8.07
2022-09-10T14:14:14.249Z,6.90
2022-09-10T14:15:19.665Z,7.20
2022-09-10T14:16:30.106Z,7.05
2022-09-10T14:17:41.316Z,6.60
2022-09-10T14:19:58.178Z,6.82
2022-09-10T14:21:00.572Z,7.28
2022-09-10T14:22:06.204Z,7.70
2022-09-10T14:23:16.183Z,7.00
2022-09-10T14:24:52.161Z,7.20
2022-09-10T14:26:23.685Z,7.13
2022-09-10T14:27:31.082Z,7.55
2022-09-10T14:28:32.762Z,7.60
2022-09-10T14:29:34.469Z,7.28
2022-09-10T14:30:36.228Z,6.65
2022-09-10T14:31:38.402Z,7.18
2022-09-10T14:32:40.852Z,6.97
2022-09-10T14:33:42.561Z,6.65
2022-09-10T14:34:44.267Z,6.88
2022-09-10T14:35:49.821Z,7.00
2022-09-10T14:36:51.555Z,6.70
2022-09-10T14:37:54.274Z,6.45
2022-09-10T14:39:16.176Z,6.82
2022-09-10T14:40:20.970Z,7.22
2022-09-10T14:41:25.878Z,6.97
2022-09-10T14:42:34.221Z,7.50
2022-09-10T14:43:40.926Z,6.95
2022-09-10T14:44:43.199Z,7.28
2022-09-10T14:45:49.914Z,7.35
2022-09-10T14:46:53.555Z,6.68
2022-09-10T14:47:55.239Z,7.10
2022-09-10T14:49:00.406Z,7.63
2022-09-10T14:50:27.424Z,7.25
2022-09-10T14:51:29.118Z,7.13
2022-09-10T14:52:30.778Z,6.63
2022-09-10T14:53:32.427Z,7.00
2022-09-10T14:54:34.989Z,7.25
2022-09-10T14:55:36.946Z,6.90
2022-09-10T14:56:44.001Z,7.53
2022-09-10T14:57:45.682Z,6.82
2022-09-10T14:58:58.337Z,7.05